| time (UTC) | temp F | wind direction | speed knots | gust knots | rain 1hr in | rain 24hr in | rain mn in | humidity % | barometer mb |
| 20260510132511 | 45 | 306 | 0.0 | 0.9 | 0.00 | 0.00 | 0.00 | 99 | 1031.2 |
| 20260510132022 | 45 | 309 | 0.0 | 0.9 | 0.00 | 0.00 | 0.00 | 100 | 1031.2 |
| 20260510131522 | 45 | 107 | 0.0 | 0.9 | 0.00 | 0.00 | 0.00 | 100 | 1031.4 |
| 20260510131022 | 45 | 109 | 0.0 | 0.9 | 0.00 | 0.00 | 0.00 | 100 | 1031.4 |
| 20260510130522 | 45 | 113 | 0.0 | 0.9 | 0.00 | 0.00 | 0.00 | 100 | 1031.5 |
| 20260510130011 | 45 | 139 | 0.0 | 0.9 | 0.00 | 0.00 | 0.00 | 100 | 1031.5 |
| 20260510125522 | 45 | 0 | 0.0 | 0.0 | 0.00 | 0.00 | 0.00 | 100 | 1031.4 |
| 20260510125012 | 45 | 0 | 0.0 | 0.0 | 0.00 | 0.00 | 0.00 | 100 | 1031.4 |
| 20260510124522 | 45 | 293 | 0.0 | 0.9 | 0.00 | 0.00 | 0.00 | 100 | 1031.5 |
| 20260510124032 | 45 | 273 | 0.0 | 0.9 | 0.00 | 0.00 | 0.00 | 100 | 1031.5 |
| 20260510123521 | 45 | 231 | 0.0 | 1.7 | 0.00 | 0.00 | 0.00 | 100 | 1031.5 |
| 20260510123024 | 46 | 201 | 0.0 | 1.7 | 0.00 | 0.00 | 0.00 | 100 | 1031.4 |
| 20260510122512 | 46 | 134 | 0.0 | 1.7 | 0.00 | 0.00 | 0.00 | 100 | 1031.6 |
| 20260510122021 | 46 | 178 | 0.9 | 1.7 | 0.00 | 0.00 | 0.00 | 100 | 1031.5 |
| 20260510121511 | 46 | 164 | 0.0 | 0.9 | 0.00 | 0.00 | 0.00 | 100 | 1031.6 |
| 20260510121012 | 47 | 171 | 0.0 | 1.7 | 0.00 | 0.00 | 0.00 | 100 | 1031.5 |
| 20260510120522 | 47 | 187 | 0.0 | 1.7 | 0.00 | 0.00 | 0.00 | 100 | 1031.6 |
| 20260510120032 | 47 | 121 | 0.0 | 1.7 | 0.00 | 0.00 | 0.00 | 100 | 1031.6 |
| 20260510115521 | 47 | 98 | 0.0 | 0.9 | 0.00 | 0.00 | 0.00 | 100 | 1031.4 |
| 20260510115021 | 47 | 92 | 0.0 | 0.9 | 0.00 | 0.00 | 0.00 | 100 | 1031.4 |
| 20260510114521 | 47 | 0 | 0.0 | 0.0 | 0.00 | 0.00 | 0.00 | 100 | 1031.4 |
| 20260510114012 | 48 | 276 | 0.0 | 0.9 | 0.00 | 0.00 | 0.00 | 100 | 1031.5 |
| 20260510113521 | 48 | 222 | 0.0 | 0.9 | 0.00 | 0.00 | 0.00 | 100 | 1031.4 |
| 20260510113012 | 49 | 135 | 0.9 | 1.7 | 0.00 | 0.00 | 0.00 | 100 | 1031.4 |
| 20260510112522 | 49 | 131 | 0.9 | 2.6 | 0.00 | 0.00 | 0.00 | 98 | 1031.3 |
| 20260510112012 | 49 | 134 | 0.9 | 2.6 | 0.00 | 0.00 | 0.00 | 99 | 1031.1 |
| 20260510111512 | 49 | 107 | 0.9 | 2.6 | 0.00 | 0.00 | 0.00 | 99 | 1031.1 |
| 20260510111012 | 49 | 112 | 1.7 | 2.6 | 0.00 | 0.00 | 0.00 | 97 | 1031.0 |
| 20260510110515 | 50 | 134 | 1.7 | 2.6 | 0.00 | 0.00 | 0.00 | 95 | 1031.0 |
| 20260510110032 | 50 | 153 | 1.7 | 2.6 | 0.00 | 0.00 | 0.00 | 94 | 1030.9 |
| 20260510105511 | 51 | 218 | 1.7 | 2.6 | 0.00 | 0.00 | 0.00 | 95 | 1030.8 |
| 20260510105035 | 51 | 215 | 1.7 | 3.5 | 0.00 | 0.00 | 0.00 | 95 | 1030.8 |
| 20260510104513 | 52 | 180 | 1.7 | 3.5 | 0.00 | 0.00 | 0.00 | 92 | 1030.8 |
| 20260510104013 | 53 | 153 | 3.5 | 5.2 | 0.00 | 0.00 | 0.00 | 89 | 1030.7 |
| 20260510103521 | 53 | 148 | 3.5 | 6.1 | 0.00 | 0.00 | 0.00 | 89 | 1030.7 |
| 20260510103022 | 53 | 151 | 3.5 | 6.1 | 0.00 | 0.00 | 0.00 | 89 | 1030.8 |
| 20260510102512 | 53 | 143 | 4.3 | 7.0 | 0.00 | 0.00 | 0.00 | 87 | 1030.6 |
| 20260510102012 | 54 | 136 | 6.1 | 10.4 | 0.00 | 0.00 | 0.00 | 87 | 1030.6 |
| 20260510101511 | 54 | 135 | 6.1 | 10.4 | 0.00 | 0.00 | 0.00 | 85 | 1030.6 |
| 20260510101012 | 54 | 132 | 4.3 | 7.0 | 0.00 | 0.00 | 0.00 | 85 | 1030.5 |
| 20260510100521 | 54 | 134 | 3.5 | 7.0 | 0.00 | 0.00 | 0.00 | 84 | 1030.5 |
| 20260510100012 | 55 | 110 | 4.3 | 10.4 | 0.00 | 0.00 | 0.00 | 81 | 1030.5 |
| 20260510095511 | 55 | 111 | 5.2 | 10.4 | 0.00 | 0.00 | 0.00 | 81 | 1030.3 |
| 20260510095012 | 55 | 128 | 5.2 | 8.7 | 0.00 | 0.00 | 0.00 | 81 | 1030.3 |
| 20260510094522 | 55 | 121 | 5.2 | 8.7 | 0.00 | 0.00 | 0.00 | 80 | 1030.1 |
| 20260510094022 | 55 | 121 | 4.3 | 8.7 | 0.00 | 0.00 | 0.00 | 80 | 1030.2 |
| 20260510093512 | 55 | 130 | 4.3 | 8.7 | 0.00 | 0.00 | 0.00 | 80 | 1030.2 |
| 20260510093022 | 55 | 146 | 5.2 | 8.7 | 0.00 | 0.00 | 0.00 | 80 | 1030.0 |
| 20260510092522 | 55 | 147 | 3.5 | 6.1 | 0.00 | 0.00 | 0.00 | 79 | 1030.1 |
| 20260510092012 | 56 | 134 | 4.3 | 7.0 | 0.00 | 0.00 | 0.00 | 81 | 1030.0 |
| 20260510091512 | 56 | 120 | 4.3 | 7.0 | 0.00 | 0.00 | 0.00 | 81 | 1029.9 |
| 20260510091022 | 56 | 120 | 4.3 | 7.8 | 0.00 | 0.00 | 0.00 | 80 | 1029.9 |
| 20260510090522 | 56 | 132 | 4.3 | 7.8 | 0.00 | 0.00 | 0.00 | 80 | 1029.9 |
| 20260510090012 | 56 | 141 | 4.3 | 7.0 | 0.00 | 0.00 | 0.00 | 79 | 1029.8 |
| 20260510085522 | 57 | 144 | 4.3 | 7.0 | 0.00 | 0.00 | 0.00 | 78 | 1029.6 |
| 20260510085012 | 56 | 154 | 4.3 | 7.0 | 0.00 | 0.00 | 0.00 | 77 | 1029.4 |
| 20260510084521 | 57 | 158 | 3.5 | 5.2 | 0.00 | 0.00 | 0.00 | 76 | 1029.3 |
| 20260510084013 | 57 | 146 | 3.5 | 5.2 | 0.00 | 0.00 | 0.00 | 73 | 1029.2 |
| 20260510083512 | 58 | 140 | 3.5 | 5.2 | 0.00 | 0.00 | 0.00 | 70 | 1029.2 |
| 20260510083022 | 58 | 139 | 5.2 | 7.8 | 0.00 | 0.00 | 0.00 | 67 | 1029.1 |
| 20260510082511 | 58 | 135 | 4.3 | 7.8 | 0.00 | 0.00 | 0.00 | 66 | 1028.9 |
| 20260510082021 | 58 | 131 | 3.5 | 5.2 | 0.00 | 0.00 | 0.00 | 65 | 1028.7 |
| 20260510081521 | 58 | 82 | 2.6 | 4.3 | 0.00 | 0.00 | 0.00 | 65 | 1028.6 |
| 20260510081022 | 58 | 29 | 1.7 | 4.3 | 0.00 | 0.00 | 0.00 | 68 | 1028.4 |
| 20260510080524 | 57 | 316 | 1.7 | 2.6 | 0.00 | 0.00 | 0.00 | 71 | 1028.3 |
| 20260510080012 | 56 | 303 | 1.7 | 2.6 | 0.00 | 0.00 | 0.00 | 73 | 1028.3 |
| 20260510075511 | 56 | 293 | 1.7 | 2.6 | 0.00 | 0.00 | 0.00 | 74 | 1028.2 |
| 20260510075022 | 56 | 293 | 1.7 | 1.7 | 0.00 | 0.00 | 0.00 | 74 | 1028.1 |
| 20260510074512 | 56 | 293 | 1.7 | 2.6 | 0.00 | 0.00 | 0.00 | 75 | 1028.0 |
| 20260510074012 | 56 | 285 | 1.7 | 2.6 | 0.00 | 0.00 | 0.00 | 74 | 1027.9 |
| 20260510073521 | 56 | 284 | 1.7 | 2.6 | 0.00 | 0.00 | 0.00 | 74 | 1028.0 |
| 20260510073012 | 57 | 294 | 1.7 | 2.6 | 0.00 | 0.00 | 0.00 | 72 | 1027.7 |
| 20260510072511 | 57 | 298 | 1.7 | 2.6 | 0.00 | 0.00 | 0.00 | 71 | 1027.7 |
| 20260510072032 | 58 | 301 | 1.7 | 2.6 | 0.00 | 0.00 | 0.00 | 72 | 1027.6 |
| 20260510071522 | 58 | 306 | 1.7 | 2.6 | 0.00 | 0.00 | 0.00 | 71 | 1027.5 |
| 20260510071012 | 58 | 305 | 0.9 | 1.7 | 0.00 | 0.00 | 0.00 | 71 | 1027.3 |
| 20260510070511 | 60 | 308 | 1.7 | 2.6 | 0.00 | 0.00 | 0.00 | 67 | 1027.4 |
| 20260510070021 | 60 | 333 | 1.7 | 2.6 | 0.00 | 0.00 | 0.00 | 65 | 1027.4 |
| 20260510065512 | 62 | 9 | 1.7 | 3.5 | 0.00 | 0.00 | 0.00 | 60 | 1027.3 |
| 20260510065012 | 63 | 15 | 1.7 | 3.5 | 0.00 | 0.00 | 0.00 | 56 | 1027.2 |
| 20260510064512 | 63 | 57 | 2.6 | 3.5 | 0.00 | 0.00 | 0.00 | 54 | 1027.2 |
| 20260510064023 | 64 | 3 | 2.6 | 4.3 | 0.00 | 0.00 | 0.00 | 52 | 1027.1 |
| 20260510063522 | 64 | 5 | 2.6 | 4.3 | 0.00 | 0.00 | 0.00 | 52 | 1027.1 |
| 20260510063021 | 64 | 2 | 2.6 | 3.5 | 0.00 | 0.00 | 0.00 | 52 | 1027.1 |
| 20260510062511 | 64 | 356 | 1.7 | 3.5 | 0.00 | 0.00 | 0.00 | 55 | 1026.9 |
| 20260510062012 | 65 | 0 | 2.6 | 4.3 | 0.00 | 0.00 | 0.00 | 53 | 1026.9 |
| 20260510061522 | 65 | 1 | 2.6 | 4.3 | 0.00 | 0.00 | 0.00 | 51 | 1026.9 |
| 20260510061012 | 65 | 348 | 2.6 | 3.5 | 0.00 | 0.00 | 0.00 | 52 | 1026.8 |
| 20260510060512 | 66 | 346 | 2.6 | 3.5 | 0.00 | 0.00 | 0.00 | 50 | 1026.8 |
| 20260510060022 | 66 | 355 | 2.6 | 3.5 | 0.00 | 0.00 | 0.00 | 49 | 1026.8 |
| 20260510055521 | 66 | 351 | 1.7 | 3.5 | 0.00 | 0.00 | 0.00 | 50 | 1026.9 |
| 20260510055012 | 66 | 331 | 2.6 | 5.2 | 0.00 | 0.00 | 0.00 | 48 | 1026.8 |
| 20260510054512 | 66 | 321 | 2.6 | 5.2 | 0.00 | 0.00 | 0.00 | 47 | 1026.7 |
| 20260510054012 | 67 | 313 | 3.5 | 5.2 | 0.00 | 0.00 | 0.00 | 51 | 1026.9 |
| 20260510053512 | 67 | 329 | 3.5 | 4.3 | 0.00 | 0.00 | 0.00 | 49 | 1026.8 |
| 20260510053012 | 67 | 330 | 3.5 | 4.3 | 0.00 | 0.00 | 0.00 | 48 | 1026.7 |
| 20260510052512 | 67 | 315 | 3.5 | 5.2 | 0.00 | 0.00 | 0.00 | 48 | 1026.7 |
| 20260510052022 | 68 | 330 | 3.5 | 5.2 | 0.00 | 0.00 | 0.00 | 47 | 1026.7 |
| 20260510051522 | 68 | 348 | 3.5 | 5.2 | 0.00 | 0.00 | 0.00 | 45 | 1026.7 |
| 20260510051021 | 68 | 354 | 2.6 | 5.2 | 0.00 | 0.00 | 0.00 | 45 | 1026.6 |
| 20260510050512 | 68 | 359 | 3.5 | 5.2 | 0.00 | 0.00 | 0.00 | 44 | 1026.6 |
| 20260510050011 | 68 | 359 | 3.5 | 6.1 | 0.00 | 0.00 | 0.00 | 40 | 1026.6 |
| 20260510045522 | 69 | 325 | 4.3 | 7.8 | 0.00 | 0.00 | 0.00 | 39 | 1026.6 |
| 20260510045012 | 68 | 312 | 4.3 | 7.8 | 0.00 | 0.00 | 0.00 | 41 | 1026.6 |
| 20260510044512 | 69 | 342 | 2.6 | 4.3 | 0.00 | 0.00 | 0.00 | 39 | 1026.4 |
| 20260510044033 | 69 | 3 | 2.6 | 4.3 | 0.00 | 0.00 | 0.00 | 39 | 1026.6 |
| 20260510043521 | 67 | 7 | 3.5 | 4.3 | 0.00 | 0.00 | 0.00 | 44 | 1026.5 |
| 20260510043022 | 69 | 2 | 3.5 | 5.2 | 0.00 | 0.00 | 0.00 | 37 | 1026.6 |
| 20260510042511 | 68 | 351 | 4.3 | 7.0 | 0.00 | 0.00 | 0.00 | 39 | 1026.6 |
| 20260510042012 | 68 | 339 | 3.5 | 7.0 | 0.00 | 0.00 | 0.00 | 37 | 1026.5 |
| 20260510041531 | 68 | 338 | 2.6 | 4.3 | 0.00 | 0.00 | 0.00 | 37 | 1026.6 |
| 20260510041012 | 68 | 332 | 2.6 | 4.3 | 0.00 | 0.00 | 0.00 | 39 | 1026.6 |
| 20260510040532 | 67 | 322 | 3.5 | 7.8 | 0.00 | 0.00 | 0.00 | 43 | 1026.6 |
| 20260510040032 | 67 | 320 | 5.2 | 7.8 | 0.00 | 0.00 | 0.00 | 43 | 1026.6 |
| 20260510035511 | 67 | 323 | 5.2 | 7.8 | 0.00 | 0.00 | 0.00 | 45 | 1026.7 |
| 20260510035031 | 68 | 322 | 4.3 | 5.2 | 0.00 | 0.00 | 0.00 | 43 | 1026.9 |
| 20260510034542 | 68 | 336 | 3.5 | 5.2 | 0.00 | 0.00 | 0.00 | 43 | 1026.7 |
| 20260510034025 | 67 | 334 | 4.3 | 5.2 | 0.00 | 0.00 | 0.00 | 41 | 1026.8 |
| 20260510033512 | 67 | 322 | 4.3 | 5.2 | 0.00 | 0.00 | 0.00 | 39 | 1026.7 |
| 20260510033012 | 67 | 328 | 3.5 | 5.2 | 0.00 | 0.00 | 0.00 | 38 | 1026.8 |
| 20260510032511 | 67 | 14 | 1.7 | 3.5 | 0.00 | 0.00 | 0.00 | 41 | 1027.0 |
| 20260510032012 | 67 | 353 | 4.3 | 7.0 | 0.00 | 0.00 | 0.00 | 40 | 1026.9 |
| 20260510031511 | 67 | 323 | 3.5 | 7.0 | 0.00 | 0.00 | 0.00 | 41 | 1026.9 |
| 20260510031031 | 67 | 319 | 3.5 | 7.0 | 0.00 | 0.00 | 0.00 | 44 | 1026.9 |
| 20260510030521 | 66 | 331 | 4.3 | 6.1 | 0.00 | 0.00 | 0.00 | 46 | 1026.9 |
| 20260510030012 | 66 | 318 | 4.3 | 7.0 | 0.00 | 0.00 | 0.00 | 46 | 1027.1 |
| 20260510025521 | 65 | 302 | 4.3 | 7.0 | 0.00 | 0.00 | 0.00 | 48 | 1027.0 |
| 20260510025042 | 65 | 305 | 4.3 | 5.2 | 0.00 | 0.00 | 0.00 | 49 | 1027.2 |
| 20260510024511 | 64 | 315 | 4.3 | 7.8 | 0.00 | 0.00 | 0.00 | 52 | 1027.2 |
| 20260510024013 | 65 | 326 | 5.2 | 7.8 | 0.00 | 0.00 | 0.00 | 50 | 1027.3 |
| 20260510023522 | 65 | 344 | 5.2 | 7.8 | 0.00 | 0.00 | 0.00 | 46 | 1027.4 |
| 20260510023022 | 65 | 319 | 4.3 | 7.0 | 0.00 | 0.00 | 0.00 | 49 | 1027.7 |
| 20260510022522 | 64 | 309 | 5.2 | 7.0 | 0.00 | 0.00 | 0.00 | 52 | 1027.7 |
| 20260510022045 | 65 | 323 | 4.3 | 7.0 | 0.00 | 0.00 | 0.00 | 49 | 1027.8 |
| 20260510021521 | 66 | 358 | 1.7 | 5.2 | 0.00 | 0.00 | 0.00 | 46 | 1027.8 |
| 20260510021021 | 65 | 352 | 3.5 | 6.1 | 0.00 | 0.00 | 0.00 | 50 | 1027.9 |
| 20260510020523 | 64 | 327 | 4.3 | 7.0 | 0.00 | 0.00 | 0.00 | 49 | 1028.0 |
| 20260510020012 | 63 | 307 | 4.3 | 7.0 | 0.00 | 0.00 | 0.00 | 52 | 1028.0 |
| 20260510015521 | 63 | 321 | 4.3 | 7.0 | 0.00 | 0.00 | 0.00 | 54 | 1028.1 |
| 20260510015012 | 63 | 322 | 3.5 | 7.0 | 0.00 | 0.00 | 0.00 | 54 | 1028.2 |
| 20260510014511 | 63 | 318 | 4.3 | 7.0 | 0.00 | 0.00 | 0.00 | 55 | 1028.2 |
| 20260510014022 | 62 | 322 | 5.2 | 7.8 | 0.00 | 0.00 | 0.00 | 52 | 1028.3 |
| 20260510013512 | 62 | 319 | 4.3 | 7.8 | 0.00 | 0.00 | 0.00 | 51 | 1028.3 |
| 20260510013012 | 62 | 307 | 3.5 | 5.2 | 0.00 | 0.00 | 0.00 | 52 | 1028.5 |
| 20260510012512 | 61 | 161 | 1.7 | 2.6 | 0.00 | 0.00 | 0.00 | 55 | 1028.4 |
| 20260510012012 | 61 | 255 | 2.6 | 4.3 | 0.00 | 0.00 | 0.00 | 57 | 1028.4 |
| 20260510011521 | 60 | 305 | 2.6 | 5.2 | 0.00 | 0.00 | 0.00 | 57 | 1028.5 |
| 20260510011021 | 60 | 332 | 3.5 | 5.2 | 0.00 | 0.00 | 0.00 | 59 | 1028.7 |
| 20260510010522 | 60 | 338 | 3.5 | 5.2 | 0.00 | 0.00 | 0.00 | 56 | 1028.6 |
| 20260510010012 | 59 | 304 | 3.5 | 5.2 | 0.00 | 0.00 | 0.00 | 57 | 1028.7 |
| 20260510005512 | 59 | 298 | 2.6 | 3.5 | 0.00 | 0.00 | 0.00 | 55 | 1028.6 |
| 20260510005022 | 58 | 302 | 2.6 | 4.3 | 0.00 | 0.00 | 0.00 | 57 | 1028.7 |
| 20260510004511 | 58 | 299 | 3.5 | 5.2 | 0.00 | 0.00 | 0.00 | 60 | 1028.8 |
| 20260510004012 | 57 | 295 | 3.5 | 5.2 | 0.00 | 0.00 | 0.00 | 61 | 1028.6 |
| 20260510003522 | 57 | 291 | 2.6 | 4.3 | 0.00 | 0.00 | 0.00 | 62 | 1028.7 |
| 20260510003022 | 57 | 286 | 1.7 | 3.5 | 0.00 | 0.00 | 0.00 | 61 | 1028.8 |
| 20260510002521 | 57 | 290 | 1.7 | 3.5 | 0.00 | 0.00 | 0.00 | 61 | 1028.7 |
| 20260510002023 | 56 | 323 | 1.7 | 3.5 | 0.00 | 0.00 | 0.00 | 61 | 1028.7 |
| 20260510001534 | 55 | 317 | 1.7 | 3.5 | 0.00 | 0.00 | 0.00 | 64 | 1028.7 |
| 20260510001022 | 55 | 293 | 1.7 | 3.5 | 0.00 | 0.00 | 0.00 | 63 | 1028.7 |
| 20260510000521 | 55 | 293 | 2.6 | 3.5 | 0.00 | 0.00 | 0.00 | 65 | 1028.6 |
| 20260510000022 | 54 | 279 | 1.7 | 3.5 | 0.00 | 0.00 | 0.00 | 65 | 1028.8 |
| 20260509235511 | 53 | 276 | 2.6 | 5.2 | 0.00 | 0.00 | 0.00 | 69 | 1028.7 |
| 20260509235021 | 53 | 325 | 2.6 | 5.2 | 0.00 | 0.00 | 0.00 | 68 | 1028.7 |
| 20260509234522 | 53 | 329 | 2.6 | 5.2 | 0.00 | 0.00 | 0.00 | 70 | 1028.7 |
| 20260509234012 | 52 | 311 | 0.9 | 2.6 | 0.00 | 0.00 | 0.00 | 72 | 1028.8 |
| 20260509233512 | 51 | 272 | 0.9 | 2.6 | 0.00 | 0.00 | 0.00 | 73 | 1028.7 |
| 20260509233012 | 51 | 304 | 0.9 | 2.6 | 0.00 | 0.00 | 0.00 | 75 | 1028.7 |
| 20260509232558 | 51 | 333 | 0.9 | 2.6 | 0.00 | 0.00 | 0.00 | 76 | 1028.7 |
| 20260509232012 | 50 | 313 | 0.9 | 1.7 | 0.00 | 0.00 | 0.00 | 77 | 1028.7 |
| 20260509231512 | 49 | 104 | 0.9 | 1.7 | 0.00 | 0.00 | 0.00 | 78 | 1028.8 |
| 20260509231022 | 49 | 84 | 0.9 | 1.7 | 0.00 | 0.00 | 0.00 | 82 | 1028.8 |
| 20260509230513 | 49 | 356 | 0.9 | 1.7 | 0.00 | 0.00 | 0.00 | 82 | 1028.7 |
| 20260509230011 | 48 | 134 | 0.9 | 1.7 | 0.00 | 0.00 | 0.00 | 80 | 1029.0 |
| 20260509225512 | 48 | 176 | 0.9 | 1.7 | 0.00 | 0.00 | 0.00 | 81 | 1028.8 |
| 20260509225012 | 48 | 132 | 0.9 | 1.7 | 0.00 | 0.00 | 0.00 | 84 | 1028.8 |
| 20260509224512 | 47 | 123 | 0.9 | 1.7 | 0.00 | 0.00 | 0.00 | 84 | 1028.8 |
| 20260509224012 | 47 | 31 | 0.9 | 1.7 | 0.00 | 0.00 | 0.00 | 81 | 1028.8 |
| 20260509223522 | 47 | 24 | 0.9 | 1.7 | 0.00 | 0.00 | 0.00 | 81 | 1028.7 |
| 20260509223022 | 46 | 196 | 0.9 | 1.7 | 0.00 | 0.00 | 0.00 | 83 | 1028.7 |
| 20260509222512 | 46 | 109 | 0.9 | 1.7 | 0.00 | 0.00 | 0.00 | 82 | 1028.7 |
| 20260509222022 | 46 | 148 | 0.9 | 1.7 | 0.00 | 0.00 | 0.00 | 83 | 1028.7 |
| 20260509221522 | 46 | 249 | 0.9 | 1.7 | 0.00 | 0.00 | 0.00 | 81 | 1028.6 |
| 20260509221021 | 45 | 327 | 0.9 | 1.7 | 0.00 | 0.00 | 0.00 | 83 | 1028.6 |
| 20260509220512 | 44 | 120 | 0.9 | 1.7 | 0.00 | 0.00 | 0.00 | 85 | 1028.6 |
| 20260509220022 | 43 | 145 | 0.9 | 1.7 | 0.00 | 0.00 | 0.00 | 89 | 1028.5 |
| 20260509215521 | 42 | 124 | 0.9 | 1.7 | 0.00 | 0.00 | 0.00 | 91 | 1028.5 |
| 20260509215011 | 42 | 112 | 0.9 | 1.7 | 0.00 | 0.00 | 0.00 | 100 | 1028.5 |
| 20260509214512 | 40 | 99 | 0.0 | 0.9 | 0.00 | 0.00 | 0.00 | 100 | 1028.4 |
| 20260509214022 | 38 | 135 | 0.0 | 1.7 | 0.00 | 0.00 | 0.00 | 100 | 1028.4 |
| 20260509213511 | 38 | 232 | 0.0 | 1.7 | 0.00 | 0.00 | 0.00 | 100 | 1028.3 |
| 20260509213022 | 37 | 303 | 0.9 | 1.7 | 0.00 | 0.00 | 0.00 | 100 | 1028.4 |
| 20260509212511 | 37 | 313 | 0.9 | 0.9 | 0.00 | 0.00 | 0.00 | 100 | 1028.0 |
| 20260509212022 | 37 | 23 | 0.0 | 1.7 | 0.00 | 0.00 | 0.00 | 100 | 1028.1 |
| 20260509211532 | 37 | 118 | 0.9 | 1.7 | 0.00 | 0.00 | 0.00 | 100 | 1028.0 |
| 20260509211012 | 37 | 123 | 0.9 | 1.7 | 0.00 | 0.00 | 0.00 | 100 | 1027.9 |
| 20260509210512 | 37 | 84 | 0.0 | 1.7 | 0.00 | 0.00 | 0.00 | 100 | 1027.9 |
| 20260509210012 | 37 | 102 | 0.9 | 1.7 | 0.00 | 0.00 | 0.00 | 100 | 1027.8 |
| 20260509205521 | 37 | 130 | 1.7 | 3.5 | 0.00 | 0.00 | 0.00 | 100 | 1027.8 |
| 20260509205011 | 38 | 130 | 1.7 | 3.5 | 0.00 | 0.00 | 0.00 | 100 | 1027.6 |
| 20260509204512 | 37 | 129 | 1.7 | 3.5 | 0.00 | 0.00 | 0.00 | 100 | 1027.6 |
| 20260509204022 | 36 | 128 | 0.9 | 2.6 | 0.00 | 0.00 | 0.00 | 100 | 1027.5 |
| 20260509203511 | 35 | 118 | 0.9 | 1.7 | 0.00 | 0.00 | 0.00 | 100 | 1027.4 |
| 20260509203012 | 35 | 114 | 0.9 | 1.7 | 0.00 | 0.00 | 0.00 | 100 | 1027.4 |
| 20260509202522 | 35 | 117 | 0.0 | 0.9 | 0.00 | 0.00 | 0.00 | 100 | 1027.3 |
| 20260509202022 | 35 | 136 | 0.0 | 0.9 | 0.00 | 0.00 | 0.00 | 100 | 1027.4 |
| 20260509201522 | 35 | 122 | 0.0 | 0.9 | 0.00 | 0.00 | 0.00 | 100 | 1027.3 |
| 20260509201022 | 35 | 120 | 0.0 | 1.7 | 0.00 | 0.00 | 0.00 | 100 | 1027.1 |
| 20260509200615 | 35 | 115 | 0.9 | 1.7 | 0.00 | 0.00 | 0.00 | 100 | 1027.1 |
| 20260509200022 | 36 | 115 | 0.9 | 1.7 | 0.00 | 0.00 | 0.00 | 100 | 1027.0 |
| 20260509195521 | 36 | 117 | 0.9 | 1.7 | 0.00 | 0.00 | 0.00 | 100 | 1027.0 |
| 20260509195022 | 36 | 282 | 0.0 | 1.7 | 0.00 | 0.00 | 0.00 | 99 | 1026.9 |
| 20260509194555 | 36 | 287 | 0.0 | 0.9 | 0.00 | 0.00 | 0.00 | 100 | 1026.8 |
| 20260509194012 | 37 | 327 | 0.0 | 0.9 | 0.00 | 0.00 | 0.00 | 100 | 1026.9 |
| 20260509193522 | 37 | 78 | 0.9 | 0.9 | 0.00 | 0.00 | 0.00 | 99 | 1026.8 |
| 20260509193023 | 36 | 99 | 0.9 | 0.9 | 0.00 | 0.00 | 0.00 | 100 | 1026.9 |
| 20260509192522 | 36 | 98 | 0.9 | 0.9 | 0.00 | 0.00 | 0.00 | 100 | 1026.7 |
| 20260509192024 | 36 | 271 | 0.9 | 1.7 | 0.00 | 0.00 | 0.00 | 100 | 1026.7 |
| 20260509191512 | 36 | 272 | 0.9 | 1.7 | 0.00 | 0.00 | 0.00 | 100 | 1026.6 |
| 20260509191022 | 36 | 252 | 0.9 | 0.9 | 0.00 | 0.00 | 0.00 | 100 | 1026.5 |
| 20260509190519 | 35 | 125 | 0.9 | 1.7 | 0.00 | 0.00 | 0.00 | 100 | 1026.4 |
| 20260509190012 | 35 | 107 | 0.9 | 1.7 | 0.00 | 0.00 | 0.00 | 100 | 1026.4 |
| 20260509185522 | 35 | 63 | 0.9 | 1.7 | 0.00 | 0.00 | 0.00 | 100 | 1026.3 |
| 20260509185022 | 35 | 295 | 0.9 | 1.7 | 0.00 | 0.00 | 0.00 | 100 | 1026.3 |
| 20260509184512 | 36 | 297 | 0.0 | 1.7 | 0.00 | 0.00 | 0.00 | 100 | 1026.3 |
| 20260509184012 | 36 | 125 | 0.0 | 0.9 | 0.00 | 0.00 | 0.00 | 100 | 1026.3 |
| 20260509183512 | 36 | 126 | 0.0 | 0.9 | 0.00 | 0.00 | 0.00 | 100 | 1026.2 |
| 20260509183012 | 36 | 46 | 0.0 | 1.7 | 0.00 | 0.00 | 0.00 | 100 | 1026.2 |
| 20260509182522 | 35 | 1 | 0.0 | 1.7 | 0.00 | 0.00 | 0.00 | 100 | 1026.2 |
| 20260509182024 | 35 | 15 | 0.0 | 0.9 | 0.00 | 0.00 | 0.00 | 100 | 1026.0 |
| 20260509181512 | 36 | 350 | 0.0 | 0.9 | 0.00 | 0.00 | 0.00 | 100 | 1026.0 |
| 20260509181012 | 36 | 306 | 0.0 | 0.9 | 0.00 | 0.00 | 0.00 | 100 | 1026.0 |
| 20260509180522 | 36 | 260 | 0.0 | 0.9 | 0.00 | 0.00 | 0.00 | 100 | 1026.0 |
| 20260509180012 | 36 | 255 | 0.0 | 0.9 | 0.00 | 0.00 | 0.00 | 100 | 1025.9 |
| 20260509175522 | 37 | 162 | 0.0 | 0.9 | 0.00 | 0.00 | 0.00 | 100 | 1025.8 |
| 20260509175011 | 37 | 73 | 0.9 | 0.9 | 0.00 | 0.00 | 0.00 | 100 | 1025.8 |
| 20260509174523 | 37 | 35 | 0.0 | 1.7 | 0.00 | 0.00 | 0.00 | 100 | 1025.7 |
| 20260509174024 | 37 | 96 | 0.0 | 1.7 | 0.00 | 0.00 | 0.00 | 100 | 1025.6 |
| 20260509173537 | 36 | 64 | 0.0 | 0.9 | 0.00 | 0.00 | 0.00 | 100 | 1025.7 |
| 20260509173012 | 36 | 328 | 0.0 | 0.9 | 0.00 | 0.00 | 0.00 | 100 | 1025.8 |
| 20260509172522 | 36 | 12 | 0.0 | 0.9 | 0.00 | 0.00 | 0.00 | 100 | 1025.8 |
| 20260509172013 | 37 | 125 | 0.0 | 0.9 | 0.00 | 0.00 | 0.00 | 100 | 1025.8 |
| 20260509171513 | 37 | 137 | 0.0 | 0.9 | 0.00 | 0.00 | 0.00 | 100 | 1025.8 |
| 20260509171013 | 36 | 0 | 0.0 | 0.0 | 0.00 | 0.00 | 0.00 | 100 | 1025.8 |
| 20260509170512 | 36 | 0 | 0.0 | 0.0 | 0.00 | 0.00 | 0.00 | 100 | 1025.9 |
| 20260509170014 | 36 | 360 | 0.0 | 0.9 | 0.00 | 0.00 | 0.00 | 100 | 1025.8 |
| 20260509165512 | 36 | 54 | 0.0 | 0.9 | 0.00 | 0.00 | 0.00 | 100 | 1025.8 |
| 20260509165023 | 37 | 118 | 0.0 | 0.9 | 0.00 | 0.00 | 0.00 | 100 | 1025.8 |
| 20260509164513 | 37 | 151 | 0.0 | 0.9 | 0.00 | 0.00 | 0.00 | 100 | 1025.8 |
| 20260509164023 | 38 | 215 | 0.0 | 0.9 | 0.00 | 0.00 | 0.00 | 100 | 1025.8 |
| 20260509163522 | 38 | 320 | 0.0 | 0.9 | 0.00 | 0.00 | 0.00 | 100 | 1025.8 |
| 20260509163027 | 38 | 333 | 0.0 | 0.9 | 0.00 | 0.00 | 0.00 | 100 | 1025.7 |
| 20260509162513 | 38 | 137 | 0.0 | 0.9 | 0.00 | 0.00 | 0.00 | 100 | 1025.6 |
| 20260509162034 | 38 | 0 | 0.0 | 0.0 | 0.00 | 0.00 | 0.00 | 100 | 1025.7 |
| 20260509161523 | 38 | 5 | 0.0 | 1.7 | 0.00 | 0.00 | 0.00 | 100 | 1025.7 |
| 20260509161016 | 39 | 29 | 0.0 | 1.7 | 0.00 | 0.00 | 0.00 | 100 | 1025.7 |
| 20260509160524 | 39 | 133 | 0.9 | 1.7 | 0.00 | 0.00 | 0.00 | 100 | 1025.7 |
| 20260509160016 | 39 | 136 | 0.9 | 1.7 | 0.00 | 0.00 | 0.00 | 100 | 1025.7 |
| 20260509155551 | 39 | 339 | 0.9 | 1.7 | 0.00 | 0.00 | 0.00 | 99 | 1025.7 |
| 20260509155019 | 39 | 336 | 0.9 | 1.7 | 0.00 | 0.00 | 0.00 | 100 | 1025.9 |
| 20260509153028 | 39 | 341 | 0.9 | 1.7 | 0.00 | 0.00 | 0.00 | 100 | 1026.0 |
| 20260509152522 | 39 | 15 | 0.0 | 0.9 | 0.00 | 0.00 | 0.00 | 100 | 1025.9 |
| 20260509152030 | 39 | 104 | 0.9 | 1.7 | 0.00 | 0.00 | 0.00 | 100 | 1025.9 |
| 20260509151532 | 39 | 124 | 0.9 | 1.7 | 0.00 | 0.00 | 0.00 | 100 | 1026.0 |
| 20260509151046 | 39 | 184 | 0.0 | 0.9 | 0.00 | 0.00 | 0.00 | 100 | 1025.8 |
| 20260509150523 | 39 | 240 | 0.9 | 1.7 | 0.00 | 0.00 | 0.00 | 100 | 1025.8 |
| 20260509150012 | 39 | 282 | 0.9 | 1.7 | 0.00 | 0.00 | 0.00 | 100 | 1025.9 |
| 20260509145513 | 39 | 323 | 0.9 | 1.7 | 0.00 | 0.00 | 0.00 | 100 | 1025.8 |
| 20260509145023 | 40 | 337 | 0.9 | 1.7 | 0.00 | 0.00 | 0.00 | 100 | 1025.9 |
| 20260509144523 | 40 | 131 | 0.0 | 0.9 | 0.00 | 0.00 | 0.00 | 100 | 1025.8 |
| 20260509144022 | 40 | 118 | 0.0 | 1.7 | 0.00 | 0.00 | 0.00 | 100 | 1025.8 |
| 20260509143523 | 40 | 121 | 0.0 | 1.7 | 0.00 | 0.00 | 0.00 | 100 | 1025.8 |
| 20260509143014 | 40 | 89 | 0.9 | 1.7 | 0.00 | 0.00 | 0.00 | 100 | 1025.9 |
| 20260509142512 | 40 | 326 | 0.9 | 2.6 | 0.00 | 0.00 | 0.00 | 100 | 1025.8 |
| 20260509142013 | 40 | 321 | 0.9 | 2.6 | 0.00 | 0.00 | 0.00 | 100 | 1025.8 |
| 20260509141512 | 39 | 345 | 0.9 | 2.6 | 0.00 | 0.00 | 0.00 | 100 | 1025.8 |
| 20260509141015 | 40 | 14 | 0.0 | 0.9 | 0.00 | 0.00 | 0.00 | 100 | 1025.8 |
| 20260509140514 | 40 | 310 | 0.0 | 0.9 | 0.00 | 0.00 | 0.00 | 100 | 1025.8 |
| 20260509140027 | 41 | 345 | 0.0 | 0.9 | 0.00 | 0.00 | 0.00 | 100 | 1025.8 |
| 20260509135513 | 41 | 339 | 0.0 | 0.9 | 0.00 | 0.00 | 0.00 | 100 | 1025.7 |
| 20260509135022 | 41 | 321 | 0.9 | 1.7 | 0.00 | 0.00 | 0.00 | 100 | 1025.7 |
| 20260509134515 | 41 | 327 | 0.9 | 1.7 | 0.00 | 0.00 | 0.00 | 100 | 1025.8 |
| 20260509134013 | 41 | 131 | 0.0 | 0.9 | 0.00 | 0.00 | 0.00 | 100 | 1025.8 |
| 20260509133513 | 42 | 182 | 0.0 | 0.9 | 0.00 | 0.00 | 0.00 | 100 | 1025.9 |
| 20260509133027 | 42 | 264 | 0.0 | 0.9 | 0.00 | 0.00 | 0.00 | 100 | 1025.8 |